createdAt,value
2018-06-11T00:01:20.267Z,10.03
2018-06-11T00:03:48.335Z,13.05
2018-06-11T00:06:16.364Z,8.13
2018-06-11T00:08:44.444Z,12.82
2018-06-11T00:11:12.488Z,13.03
2018-06-11T00:13:40.532Z,12.68
2018-06-11T00:16:08.613Z,15.58
2018-06-11T00:18:36.652Z,9.65
2018-06-11T00:21:04.703Z,12.37
2018-06-11T00:23:33.455Z,11.10
2018-06-11T00:26:01.520Z,8.98
2018-06-11T00:28:29.568Z,8.23
2018-06-11T00:30:57.784Z,11.70
2018-06-11T00:33:25.840Z,9.48
2018-06-11T00:35:53.881Z,8.88
2018-06-11T00:38:21.940Z,11.05
2018-06-11T00:40:50.034Z,8.73
2018-06-11T00:43:18.068Z,5.20
2018-06-11T00:45:46.124Z,5.47
2018-06-11T00:48:14.184Z,7.75
2018-06-11T00:50:42.252Z,8.50
2018-06-11T00:53:10.296Z,11.93
2018-06-11T00:55:49.881Z,9.95
2018-06-11T00:58:17.925Z,6.05
2018-06-11T01:00:45.975Z,6.37
2018-06-11T01:03:14.024Z,6.60
2018-06-11T01:05:42.072Z,6.92
2018-06-11T01:08:10.109Z,7.17
2018-06-11T01:10:38.163Z,7.10
2018-06-11T01:13:06.221Z,7.85
2018-06-11T01:15:34.295Z,9.45
2018-06-11T01:18:02.386Z,8.88
2018-06-11T01:20:30.429Z,7.33
2018-06-11T01:22:58.477Z,5.10
2018-06-11T01:25:26.584Z,8.63
2018-06-11T01:27:54.651Z,7.20
2018-06-11T01:30:22.735Z,7.90
2018-06-11T01:32:50.779Z,7.95
2018-06-11T01:35:18.848Z,7.80
2018-06-11T01:37:46.876Z,8.75
2018-06-11T01:40:14.915Z,6.72
2018-06-11T01:42:42.951Z,8.85
2018-06-11T01:45:11.004Z,5.85
2018-06-11T01:47:39.034Z,6.80
2018-06-11T01:50:07.080Z,7.90
2018-06-11T01:52:35.128Z,10.10
2018-06-11T01:55:03.173Z,5.80
2018-06-11T01:57:31.207Z,4.97
2018-06-11T01:59:59.250Z,5.53
2018-06-11T02:02:27.286Z,7.12
2018-06-11T02:04:55.320Z,5.72
2018-06-11T02:07:23.349Z,6.17
2018-06-11T02:09:51.401Z,5.40
2018-06-11T02:12:19.444Z,6.80
2018-06-11T02:14:47.492Z,5.58
2018-06-11T02:17:15.565Z,6.58
2018-06-11T02:19:43.599Z,7.92
2018-06-11T02:22:11.628Z,4.72
2018-06-11T02:24:39.665Z,6.50
2018-06-11T02:27:07.692Z,5.45
2018-06-11T02:29:35.724Z,6.17
2018-06-11T02:32:03.757Z,6.35
2018-06-11T02:34:31.800Z,5.95
2018-06-11T02:36:59.820Z,5.47
2018-06-11T02:39:27.960Z,6.05
2018-06-11T02:41:55.991Z,6.95
2018-06-11T02:44:24.036Z,7.20
2018-06-11T02:46:52.060Z,6.25
2018-06-11T02:49:20.110Z,4.83
2018-06-11T02:51:48.144Z,9.50
2018-06-11T02:54:16.193Z,9.35
2018-06-11T02:56:44.240Z,7.53
2018-06-11T02:59:12.291Z,7.12
2018-06-11T03:01:40.332Z,7.17
2018-06-11T03:04:08.368Z,5.28
2018-06-11T03:06:36.451Z,5.83
2018-06-11T03:09:06.533Z,6.33
2018-06-11T03:11:34.616Z,5.87
2018-06-11T03:14:02.652Z,7.25
2018-06-11T03:16:30.697Z,7.80
2018-06-11T03:18:58.733Z,6.30
2018-06-11T03:21:26.780Z,5.12
2018-06-11T03:23:54.849Z,7.50
2018-06-11T03:26:22.892Z,6.87
2018-06-11T03:28:50.931Z,6.03
2018-06-11T03:31:19.004Z,5.70
2018-06-11T03:33:47.143Z,7.72
2018-06-11T03:36:15.195Z,4.90
2018-06-11T03:38:43.224Z,8.68
2018-06-11T03:41:11.272Z,7.05
2018-06-11T03:43:39.303Z,15.70
2018-06-11T03:46:07.351Z,8.35
2018-06-11T03:48:35.425Z,7.50
2018-06-11T03:51:03.465Z,6.12
2018-06-11T03:53:31.496Z,6.87
2018-06-11T03:55:59.552Z,7.00
2018-06-11T03:58:27.588Z,8.03
2018-06-11T04:00:55.651Z,8.73
2018-06-11T04:03:23.685Z,6.22
2018-06-11T04:05:51.727Z,12.40
2018-06-11T04:08:19.767Z,8.18
2018-06-11T04:10:47.830Z,8.78
2018-06-11T04:13:15.852Z,6.90
2018-06-11T04:15:43.900Z,5.97
2018-06-11T04:18:11.969Z,6.97
2018-06-11T04:20:41.066Z,7.60
2018-06-11T04:23:09.096Z,7.03
2018-06-11T04:25:37.133Z,7.45
2018-06-11T04:28:05.263Z,5.58
2018-06-11T04:30:33.394Z,5.62
2018-06-11T04:33:01.385Z,8.13
2018-06-11T04:35:29.428Z,10.45
2018-06-11T04:37:57.490Z,11.08
2018-06-11T04:40:25.530Z,6.83
2018-06-11T04:42:53.571Z,9.20
2018-06-11T04:45:21.661Z,6.50
2018-06-11T04:47:49.661Z,10.98
2018-06-11T04:50:17.704Z,6.58
2018-06-11T04:52:45.748Z,5.45
2018-06-11T04:55:13.809Z,8.83
2018-06-11T04:57:41.833Z,8.75
2018-06-11T05:00:09.875Z,7.40
2018-06-11T05:02:37.911Z,6.58
2018-06-11T05:05:05.984Z,8.28
2018-06-11T05:07:34.017Z,7.92
2018-06-11T05:10:02.127Z,7.05
2018-06-11T05:12:30.112Z,7.17
2018-06-11T05:14:58.145Z,6.67
2018-06-11T05:17:26.179Z,6.28
2018-06-11T05:19:54.227Z,4.25
2018-06-11T05:22:22.296Z,5.72
2018-06-11T05:24:50.329Z,8.98
2018-06-11T05:27:18.377Z,6.58
2018-06-11T05:29:46.444Z,5.78
2018-06-11T05:32:14.489Z,5.35
2018-06-11T05:34:42.591Z,5.58
2018-06-11T05:37:10.570Z,5.40
2018-06-11T05:39:38.617Z,4.47
2018-06-11T05:42:06.665Z,6.67
2018-06-11T05:44:34.732Z,5.67
2018-06-11T05:47:02.772Z,6.78
2018-06-11T05:49:30.805Z,7.75
2018-06-11T05:51:58.864Z,7.25
2018-06-11T05:54:26.896Z,8.80
2018-06-11T05:56:54.958Z,6.58
2018-06-11T05:59:22.996Z,16.05
2018-06-11T06:01:51.149Z,8.78
2018-06-11T06:04:19.190Z,6.35
2018-06-11T06:06:47.240Z,7.22
2018-06-11T06:09:15.272Z,6.78
2018-06-11T06:11:43.307Z,7.15
2018-06-11T06:14:11.395Z,7.83
2018-06-11T06:16:39.437Z,9.20
2018-06-11T06:19:07.480Z,8.83
2018-06-11T06:21:35.531Z,11.08
2018-06-11T06:24:03.596Z,9.35
2018-06-11T06:26:31.645Z,8.78
2018-06-11T06:28:59.677Z,7.60
2018-06-11T06:31:27.732Z,8.20
2018-06-11T06:33:55.781Z,9.60
2018-06-11T06:36:23.838Z,6.90
2018-06-11T06:38:51.879Z,6.35
2018-06-11T06:41:19.951Z,7.53
2018-06-11T06:43:48.007Z,7.60
2018-06-11T06:46:16.064Z,7.80
2018-06-11T06:48:44.108Z,12.25
2018-06-11T06:51:12.170Z,7.67
2018-06-11T06:53:40.221Z,7.62
2018-06-11T06:56:08.256Z,12.93
2018-06-11T06:58:36.316Z,9.13
2018-06-11T07:01:04.370Z,8.68
2018-06-11T07:03:32.400Z,11.15
2018-06-11T07:06:00.456Z,14.53
2018-06-11T07:08:28.512Z,12.30
2018-06-11T07:10:56.581Z,10.55
2018-06-11T07:13:24.650Z,8.63
2018-06-11T07:15:52.687Z,8.33
2018-06-11T07:18:20.733Z,14.55
2018-06-11T07:20:48.889Z,8.40
2018-06-11T07:23:16.952Z,10.72
2018-06-11T07:25:44.996Z,6.67
2018-06-11T07:28:13.134Z,9.38
2018-06-11T07:30:41.261Z,9.75
2018-06-11T07:33:09.307Z,9.78
2018-06-11T07:35:37.634Z,10.95
2018-06-11T07:38:05.909Z,7.25
2018-06-11T07:40:40.611Z,8.88
2018-06-11T07:43:08.787Z,16.00
2018-06-11T07:45:36.845Z,18.17
2018-06-11T07:48:05.048Z,15.20
2018-06-11T07:50:33.125Z,15.93
2018-06-11T07:53:01.283Z,11.20
2018-06-11T07:55:29.341Z,12.03
2018-06-11T07:57:57.400Z,14.40
2018-06-11T08:00:25.467Z,10.25
2018-06-11T08:02:53.512Z,11.65
2018-06-11T08:05:21.596Z,15.53
2018-06-11T08:07:49.677Z,13.48
2018-06-11T08:10:17.754Z,17.37
2018-06-11T08:12:45.930Z,14.07
2018-06-11T08:15:14.138Z,13.72
2018-06-11T08:17:42.197Z,14.68
2018-06-11T08:20:10.257Z,16.48
2018-06-11T08:22:38.332Z,16.32
2018-06-11T08:25:06.388Z,18.87
2018-06-11T08:27:34.444Z,15.40
2018-06-11T08:30:02.488Z,13.48
2018-06-11T08:32:30.556Z,20.77
2018-06-11T08:34:58.652Z,14.13
2018-06-11T08:37:26.717Z,22.10
2018-06-11T08:39:54.744Z,20.57
2018-06-11T08:42:22.805Z,18.40
2018-06-11T08:44:50.945Z,24.87
2018-06-11T08:47:19.004Z,11.97
2018-06-11T08:49:47.073Z,17.07
2018-06-11T08:52:15.144Z,14.47
2018-06-11T08:54:43.184Z,13.48
2018-06-11T08:57:11.284Z,11.30
2018-06-11T08:59:39.336Z,13.85
2018-06-11T09:02:07.399Z,15.23
2018-06-11T09:04:35.443Z,10.20
2018-06-11T09:07:03.544Z,11.38
2018-06-11T09:09:31.553Z,15.15
2018-06-11T09:11:59.608Z,16.95
2018-06-11T09:14:27.644Z,18.30
2018-06-11T09:16:55.700Z,17.82
2018-06-11T09:19:23.747Z,19.55
2018-06-11T09:21:51.815Z,20.20
2018-06-11T09:24:19.876Z,29.50
2018-06-11T09:26:47.944Z,21.55
2018-06-11T09:29:16.002Z,22.05
2018-06-11T09:31:44.064Z,22.65
2018-06-11T09:34:12.114Z,27.20
2018-06-11T09:36:40.171Z,29.52
2018-06-11T09:39:08.720Z,29.18
2018-06-11T09:41:36.827Z,31.97
2018-06-11T09:44:04.975Z,23.85
2018-06-11T09:46:32.979Z,27.80
2018-06-11T09:49:01.048Z,32.10
2018-06-11T09:51:29.103Z,24.10
2018-06-11T09:53:57.173Z,19.05
2018-06-11T09:56:25.245Z,24.23
2018-06-11T09:58:53.336Z,27.80
2018-06-11T10:01:21.396Z,17.35
2018-06-11T10:03:49.475Z,32.08
2018-06-11T10:06:17.525Z,21.73
2018-06-11T10:08:45.632Z,28.25
2018-06-11T10:11:13.684Z,20.72
2018-06-11T10:13:41.795Z,30.27
2018-06-11T10:16:09.858Z,26.90
2018-06-11T10:18:37.916Z,31.10
2018-06-11T10:21:06.061Z,30.12
2018-06-11T10:23:34.123Z,39.85
2018-06-11T10:26:02.180Z,30.27
2018-06-11T10:28:30.244Z,27.17
2018-06-11T10:30:59.200Z,23.55
2018-06-11T10:33:27.285Z,31.00
2018-06-11T10:35:55.340Z,30.25
2018-06-11T10:38:23.423Z,27.17
2018-06-11T10:40:51.482Z,26.00
2018-06-11T10:43:19.542Z,40.30
2018-06-11T10:45:47.592Z,34.13
2018-06-11T10:48:15.644Z,32.13
2018-06-11T10:50:43.725Z,33.67
2018-06-11T10:53:11.767Z,58.25
2018-06-11T10:55:39.808Z,35.00
2018-06-11T10:58:07.920Z,33.88
2018-06-11T11:00:35.921Z,24.23
2018-06-11T11:03:03.979Z,24.37
2018-06-11T11:05:32.017Z,44.00
2018-06-11T11:08:00.068Z,32.48
2018-06-11T11:10:28.112Z,46.75
2018-06-11T11:12:56.164Z,34.10
2018-06-11T11:15:24.205Z,41.48
2018-06-11T11:17:52.269Z,28.57
2018-06-11T11:20:20.332Z,23.95
2018-06-11T11:22:48.387Z,27.58
2018-06-11T11:25:16.476Z,22.00
2018-06-11T11:27:44.508Z,21.12
2018-06-11T11:30:12.582Z,26.87
2018-06-11T11:32:40.615Z,24.87
2018-06-11T11:35:08.678Z,21.25
2018-06-11T11:37:36.729Z,20.77
2018-06-11T11:40:04.815Z,25.92
2018-06-11T11:42:32.864Z,28.12
2018-06-11T11:45:00.940Z,37.65
2018-06-11T11:47:28.981Z,36.28
2018-06-11T11:49:57.027Z,34.08
2018-06-11T11:52:25.084Z,39.58
2018-06-11T11:54:53.139Z,32.88
2018-06-11T11:57:21.179Z,26.62
2018-06-11T11:59:49.255Z,29.50
2018-06-11T12:02:17.301Z,31.25
2018-06-11T12:04:45.368Z,23.18
2018-06-11T12:07:13.449Z,24.43
2018-06-11T12:09:41.479Z,25.82
2018-06-11T12:12:09.528Z,21.77
2018-06-11T12:14:37.604Z,20.25
2018-06-11T12:17:05.872Z,36.10
2018-06-11T12:19:33.948Z,21.35
2018-06-11T12:22:02.024Z,23.52
2018-06-11T12:24:30.084Z,25.05
2018-06-11T12:26:58.156Z,28.87
2018-06-11T12:29:26.259Z,33.23
2018-06-11T12:31:54.397Z,40.88
2018-06-11T12:34:22.480Z,41.48
2018-06-11T12:36:50.548Z,33.33
2018-06-11T12:39:18.656Z,40.73
2018-06-11T12:41:46.756Z,28.07
2018-06-11T12:44:14.821Z,33.02
2018-06-11T12:46:42.876Z,27.32
2018-06-11T12:49:10.927Z,29.35
2018-06-11T12:51:38.960Z,34.30
2018-06-11T12:54:07.013Z,29.20
2018-06-11T12:56:35.095Z,32.45
2018-06-11T12:59:03.147Z,33.15
2018-06-11T13:01:31.227Z,29.77
2018-06-11T13:03:59.311Z,41.10
2018-06-11T13:06:27.411Z,30.35
2018-06-11T13:08:55.462Z,25.62
2018-06-11T13:11:23.508Z,24.50
2018-06-11T13:13:51.555Z,31.65
2018-06-11T13:16:19.670Z,25.23
2018-06-11T13:18:47.724Z,24.15
2018-06-11T13:21:15.810Z,28.70
2018-06-11T13:23:43.877Z,27.98
2018-06-11T13:26:11.952Z,28.15
2018-06-11T13:28:40.000Z,33.10
2018-06-11T13:31:08.091Z,28.77
2018-06-11T13:33:36.137Z,34.23
2018-06-11T13:36:04.195Z,35.30
2018-06-11T13:38:32.295Z,18.75
2018-06-11T13:41:00.372Z,21.45
2018-06-11T13:43:28.432Z,32.30
2018-06-11T13:45:56.494Z,24.87
2018-06-11T13:48:24.532Z,20.60
2018-06-11T13:50:52.597Z,29.77
2018-06-11T13:53:20.658Z,17.17
2018-06-11T13:55:48.708Z,20.25
2018-06-11T13:58:16.792Z,20.97
2018-06-11T14:00:44.840Z,23.80
2018-06-11T14:03:12.887Z,30.05
2018-06-11T14:05:40.953Z,26.77
2018-06-11T14:08:08.993Z,31.10
2018-06-11T14:10:37.067Z,27.85
2018-06-11T14:13:05.144Z,36.08
2018-06-11T14:15:33.193Z,21.48
2018-06-11T14:18:01.237Z,33.28
2018-06-11T14:20:29.291Z,31.85
2018-06-11T14:22:57.369Z,26.57
2018-06-11T14:25:25.449Z,22.90
2018-06-11T14:27:53.500Z,20.10
2018-06-11T14:30:21.562Z,13.80
2018-06-11T14:32:49.628Z,19.75
2018-06-11T14:35:17.693Z,19.98
2018-06-11T14:37:45.755Z,24.65
2018-06-11T14:40:13.825Z,17.80
2018-06-11T14:42:41.897Z,23.07
2018-06-11T14:45:09.968Z,15.60
2018-06-11T14:47:38.038Z,18.98
2018-06-11T14:50:06.093Z,14.90
2018-06-11T14:52:34.177Z,16.17
2018-06-11T14:55:02.216Z,18.50
2018-06-11T14:57:30.486Z,19.95
2018-06-11T14:59:58.532Z,21.55
2018-06-11T15:02:26.641Z,12.80
2018-06-11T15:04:54.680Z,13.15
2018-06-11T15:07:22.732Z,17.92
2018-06-11T15:09:50.800Z,17.57
2018-06-11T15:12:18.873Z,22.62
2018-06-11T15:14:46.927Z,16.12
2018-06-11T15:17:14.997Z,22.25
2018-06-11T15:19:43.059Z,17.40
2018-06-11T15:22:11.143Z,22.17
2018-06-11T15:24:39.204Z,16.37
2018-06-11T15:27:07.268Z,11.88
2018-06-11T15:29:35.327Z,17.92
2018-06-11T15:32:03.411Z,11.85
2018-06-11T15:34:31.513Z,14.23
2018-06-11T15:36:59.588Z,14.58
2018-06-11T15:39:27.644Z,16.02
2018-06-11T15:41:55.731Z,14.38
2018-06-11T15:44:23.775Z,9.58
2018-06-11T15:46:51.879Z,10.55
2018-06-11T15:49:19.940Z,21.10
2018-06-11T15:51:48.013Z,12.60
2018-06-11T15:54:16.116Z,12.15
2018-06-11T15:56:44.242Z,13.72
2018-06-11T15:59:12.237Z,12.80
2018-06-11T16:01:40.310Z,15.68
2018-06-11T16:04:08.381Z,24.02
2018-06-11T16:06:36.492Z,21.68
2018-06-11T16:09:07.092Z,17.50
2018-06-11T16:11:35.257Z,20.25
2018-06-11T16:14:03.324Z,14.85
2018-06-11T16:16:31.423Z,17.25
2018-06-11T16:19:00.660Z,13.18
2018-06-11T16:21:31.398Z,19.12
2018-06-11T16:23:59.514Z,16.20
2018-06-11T16:26:27.599Z,13.35
2018-06-11T16:28:55.647Z,17.98
2018-06-11T16:31:23.729Z,15.72
2018-06-11T16:33:51.859Z,16.05
2018-06-11T16:36:19.909Z,14.87
2018-06-11T16:38:48.680Z,14.30
2018-06-11T16:41:16.749Z,17.77
2018-06-11T16:43:44.832Z,16.60
2018-06-11T16:46:15.264Z,17.87
2018-06-11T16:48:43.325Z,15.45
2018-06-11T16:51:11.373Z,16.30
2018-06-11T16:53:39.441Z,16.02
2018-06-11T16:56:07.497Z,14.00
2018-06-11T16:58:35.557Z,13.93
2018-06-11T17:01:03.613Z,10.80
2018-06-11T17:03:31.689Z,18.10
2018-06-11T17:05:59.752Z,18.65
2018-06-11T17:08:27.813Z,15.35
2018-06-11T17:10:55.896Z,13.78
2018-06-11T17:13:23.974Z,11.73
2018-06-11T17:15:52.059Z,12.13
2018-06-11T17:18:20.149Z,13.75
2018-06-11T17:20:48.210Z,10.80
2018-06-11T17:23:16.271Z,11.25
2018-06-11T17:25:44.354Z,10.75
2018-06-11T17:28:12.496Z,10.63
2018-06-11T17:30:40.558Z,12.75
2018-06-11T17:33:08.790Z,7.35
2018-06-11T17:35:36.911Z,17.70
2018-06-11T17:38:04.976Z,13.88
2018-06-11T17:40:33.019Z,10.38
2018-06-11T17:43:01.192Z,14.50
2018-06-11T17:45:29.242Z,12.35
2018-06-11T17:47:57.308Z,8.93
2018-06-11T17:50:25.362Z,7.15
2018-06-11T17:52:53.414Z,7.75
2018-06-11T17:55:21.456Z,7.62
2018-06-11T17:57:49.561Z,12.05
2018-06-11T18:00:17.586Z,8.33
2018-06-11T18:02:45.717Z,13.35
2018-06-11T18:05:13.768Z,8.90
2018-06-11T18:07:41.852Z,11.28
2018-06-11T18:10:09.904Z,7.17
2018-06-11T18:12:37.988Z,11.78
2018-06-11T18:15:06.049Z,9.73
2018-06-11T18:17:34.100Z,7.78
2018-06-11T18:20:02.181Z,11.55
2018-06-11T18:22:30.265Z,8.23
2018-06-11T18:24:58.322Z,7.65
2018-06-11T18:27:26.373Z,10.53
2018-06-11T18:29:54.482Z,10.45
2018-06-11T18:32:22.531Z,7.37
2018-06-11T18:34:50.628Z,10.75
2018-06-11T18:37:18.715Z,12.05
2018-06-11T18:39:46.771Z,7.03
2018-06-11T18:42:14.808Z,9.90
2018-06-11T18:44:42.859Z,7.70
2018-06-11T18:47:10.929Z,8.18
2018-06-11T18:49:38.984Z,14.13
2018-06-11T18:52:07.034Z,11.83
2018-06-11T18:54:35.106Z,6.70
2018-06-11T18:57:03.152Z,11.12
2018-06-11T18:59:31.279Z,6.87
2018-06-11T19:01:59.384Z,8.85
2018-06-11T19:04:27.433Z,10.50
2018-06-11T19:06:55.499Z,10.23
2018-06-11T19:09:23.560Z,7.30
2018-06-11T19:11:51.600Z,8.60
2018-06-11T19:14:19.657Z,22.58
2018-06-11T19:16:47.696Z,12.10
2018-06-11T19:19:15.741Z,8.40
2018-06-11T19:21:43.804Z,6.50
2018-06-11T19:24:11.878Z,5.62
2018-06-11T19:26:39.896Z,5.17
2018-06-11T19:29:07.942Z,10.43
2018-06-11T19:31:36.005Z,5.92
2018-06-11T19:34:04.072Z,6.95
2018-06-11T19:36:32.132Z,11.00
2018-06-11T19:39:00.189Z,6.08
2018-06-11T19:41:28.241Z,6.30
2018-06-11T19:43:56.288Z,6.65
2018-06-11T19:46:24.640Z,5.78
2018-06-11T19:48:52.681Z,7.95
2018-06-11T19:51:20.727Z,6.60
2018-06-11T19:53:48.772Z,8.05
2018-06-11T19:56:16.825Z,5.05
2018-06-11T19:58:44.886Z,6.75
2018-06-11T20:01:12.926Z,7.10
2018-06-11T20:03:40.980Z,7.78
2018-06-11T20:06:09.028Z,10.30
2018-06-11T20:08:37.064Z,5.62
2018-06-11T20:11:05.116Z,7.30
2018-06-11T20:13:33.198Z,10.30
2018-06-11T20:16:01.249Z,7.25
2018-06-11T20:18:30.221Z,5.75
2018-06-11T20:20:58.292Z,9.90
2018-06-11T20:23:26.344Z,6.62
2018-06-11T20:25:54.408Z,4.80
2018-06-11T20:28:22.450Z,4.37
2018-06-11T20:30:50.523Z,5.30
2018-06-11T20:33:18.576Z,11.12
2018-06-11T20:35:46.640Z,7.45
2018-06-11T20:38:14.688Z,5.42
2018-06-11T20:40:42.744Z,7.03
2018-06-11T20:43:10.793Z,6.25
2018-06-11T20:45:38.852Z,7.12
2018-06-11T20:48:06.924Z,4.78
2018-06-11T20:50:34.980Z,8.58
2018-06-11T20:53:03.034Z,8.50
2018-06-11T20:55:31.109Z,7.55
2018-06-11T20:57:59.220Z,7.67
2018-06-11T21:00:27.210Z,8.93
2018-06-11T21:02:55.256Z,7.67
2018-06-11T21:05:23.316Z,7.30
2018-06-11T21:07:51.384Z,5.90
2018-06-11T21:10:19.437Z,7.22
2018-06-11T21:12:47.516Z,5.20
2018-06-11T21:15:15.673Z,7.40
2018-06-11T21:17:43.723Z,7.55
2018-06-11T21:20:11.818Z,7.62
2018-06-11T21:22:39.873Z,7.95
2018-06-11T21:25:07.955Z,7.78
2018-06-11T21:27:35.988Z,7.28
2018-06-11T21:30:04.074Z,7.17
2018-06-11T21:32:32.124Z,9.93
2018-06-11T21:35:00.200Z,8.73
2018-06-11T21:37:28.285Z,10.13
2018-06-11T21:39:56.341Z,4.87
2018-06-11T21:42:24.387Z,5.37
2018-06-11T21:44:52.448Z,7.15
2018-06-11T21:47:20.493Z,4.90
2018-06-11T21:49:48.561Z,3.45
2018-06-11T21:52:16.624Z,7.72
2018-06-11T21:54:44.685Z,8.43
2018-06-11T21:57:12.740Z,6.17
2018-06-11T21:59:40.795Z,5.60
2018-06-11T22:02:08.836Z,6.50
2018-06-11T22:04:36.933Z,7.10
2018-06-11T22:07:04.993Z,8.00
2018-06-11T22:09:33.040Z,8.08
2018-06-11T22:12:01.080Z,6.65
2018-06-11T22:14:29.137Z,4.35
2018-06-11T22:16:57.180Z,6.40
2018-06-11T22:19:25.231Z,10.53
2018-06-11T22:21:53.313Z,5.83
2018-06-11T22:24:21.375Z,5.30
2018-06-11T22:26:49.420Z,7.55
2018-06-11T22:29:17.468Z,6.28
2018-06-11T22:31:45.511Z,7.10
2018-06-11T22:34:13.585Z,6.15
2018-06-11T22:36:41.636Z,7.67
2018-06-11T22:39:09.689Z,5.90
2018-06-11T22:41:37.820Z,6.40
2018-06-11T22:44:05.859Z,6.50
2018-06-11T22:46:33.915Z,7.92
2018-06-11T22:49:01.985Z,5.00
2018-06-11T22:51:30.036Z,6.90
2018-06-11T22:53:58.076Z,6.10
2018-06-11T22:56:26.136Z,6.05
2018-06-11T22:58:54.196Z,11.50
2018-06-11T23:01:22.259Z,4.17
2018-06-11T23:03:50.305Z,5.90
2018-06-11T23:06:18.377Z,10.70
2018-06-11T23:08:46.436Z,7.00
2018-06-11T23:11:14.522Z,5.08
2018-06-11T23:13:42.563Z,5.72
2018-06-11T23:16:10.624Z,6.83
2018-06-11T23:18:38.660Z,6.90
2018-06-11T23:21:06.708Z,7.20
2018-06-11T23:23:34.764Z,4.47
2018-06-11T23:26:02.829Z,4.65
2018-06-11T23:28:31.499Z,5.03
2018-06-11T23:30:59.552Z,3.30
2018-06-11T23:33:27.605Z,3.70
2018-06-11T23:35:55.664Z,3.90
2018-06-11T23:38:23.711Z,5.42
2018-06-11T23:40:51.766Z,2.90
2018-06-11T23:43:19.812Z,6.85
2018-06-11T23:45:47.871Z,12.13
2018-06-11T23:48:16.020Z,6.37
2018-06-11T23:50:44.083Z,2.72
2018-06-11T23:53:12.157Z,6.67
2018-06-11T23:55:40.196Z,5.55
2018-06-11T23:58:08.295Z,5.62
